createdAt,value
2022-08-22T00:02:11.410Z,92.40
2022-08-22T00:02:53.141Z,93.57
2022-08-22T00:02:55.897Z,93.57
2022-08-22T00:03:02.382Z,93.31
2022-08-22T00:05:31.770Z,92.31
2022-08-22T00:09:20.891Z,92.41
2022-08-22T00:12:15.624Z,92.55
2022-08-22T00:15:43.048Z,92.30
2022-08-22T00:18:46.157Z,92.45
2022-08-22T00:21:40.699Z,92.40
2022-08-22T00:24:26.639Z,92.25
2022-08-22T00:27:10.074Z,92.06
2022-08-22T00:29:50.274Z,92.31
2022-08-22T00:32:35.212Z,92.41
2022-08-22T00:35:24.830Z,92.35
2022-08-22T00:38:31.477Z,92.32
2022-08-22T00:41:18.191Z,92.51
2022-08-22T00:43:54.834Z,92.43
2022-08-22T00:46:41.807Z,92.40
2022-08-22T00:49:34.399Z,92.07
2022-08-22T00:52:22.308Z,92.33
2022-08-22T00:55:11.982Z,92.37
2022-08-22T00:57:43.508Z,92.34
2022-08-22T01:00:14.413Z,92.38
2022-08-22T01:03:01.716Z,92.36
2022-08-22T01:06:04.008Z,92.46
2022-08-22T01:08:51.585Z,92.41
2022-08-22T01:12:07.512Z,92.59
2022-08-22T01:14:53.342Z,92.39
2022-08-22T01:17:33.463Z,92.26
2022-08-22T01:20:42.918Z,92.20
2022-08-22T01:23:47.565Z,92.14
2022-08-22T01:26:41.290Z,91.99
2022-08-22T01:29:40.424Z,92.08
2022-08-22T01:32:31.325Z,92.03
2022-08-22T01:35:20.912Z,91.98
2022-08-22T01:38:20.691Z,92.04
2022-08-22T01:41:10.465Z,91.96
2022-08-22T01:43:59.684Z,91.83
2022-08-22T01:47:02.059Z,91.70
2022-08-22T01:49:49.299Z,92.03
2022-08-22T01:52:43.291Z,92.11
2022-08-22T01:55:25.027Z,92.31
2022-08-22T01:58:27.974Z,92.20
2022-08-22T02:01:28.752Z,92.04
2022-08-22T02:08:26.572Z,91.92
2022-08-22T02:11:53.594Z,91.90
2022-08-22T02:15:07.609Z,92.18
2022-08-22T02:18:29.063Z,91.99
2022-08-22T02:22:14.923Z,92.13
2022-08-22T02:26:10.177Z,92.14
2022-08-22T02:30:16.140Z,92.02
2022-08-22T02:33:56.045Z,91.99
2022-08-22T02:36:34.588Z,92.14
2022-08-22T02:39:13.269Z,92.10
2022-08-22T02:42:51.787Z,92.15
2022-08-22T02:46:52.593Z,92.23
2022-08-22T02:50:13.317Z,92.34
2022-08-22T03:02:39.946Z,92.20
2022-08-22T03:35:37.810Z,92.47
2022-08-22T03:42:30.468Z,92.39
2022-08-22T03:46:08.742Z,92.28
2022-08-22T03:49:13.869Z,92.27
2022-08-22T03:52:15.578Z,92.31
2022-08-22T04:03:19.820Z,92.57
2022-08-22T04:06:19.763Z,92.41
2022-08-22T04:09:49.569Z,92.58
2022-08-22T04:12:59.654Z,92.48
2022-08-22T04:15:56.356Z,92.29
2022-08-22T04:19:02.325Z,92.64
2022-08-22T04:21:42.815Z,92.80
2022-08-22T04:24:38.638Z,92.77
2022-08-22T04:27:40.764Z,92.63
2022-08-22T04:30:31.462Z,92.74
2022-08-22T04:33:53.955Z,92.61
2022-08-22T04:36:48.028Z,92.46
2022-08-22T04:39:28.752Z,92.53
2022-08-22T04:42:36.372Z,92.61
2022-08-22T04:45:12.525Z,92.74
2022-08-22T04:48:05.190Z,92.75
2022-08-22T04:50:43.317Z,92.72
2022-08-22T04:53:33.118Z,92.94
2022-08-22T04:56:25.038Z,93.11
2022-08-22T04:59:03.512Z,93.27
2022-08-22T05:01:55.325Z,93.27
2022-08-22T05:04:38.160Z,92.90
2022-08-22T05:07:12.597Z,92.84
2022-08-22T05:09:46.361Z,92.95
2022-08-22T05:12:21.949Z,92.62
2022-08-22T05:14:55.202Z,92.68
2022-08-22T05:17:26.988Z,92.81
2022-08-22T05:19:58.929Z,92.96
2022-08-22T05:22:36.784Z,93.33
2022-08-22T05:25:11.785Z,93.30
2022-08-22T05:27:45.080Z,93.12
2022-08-22T05:30:21.059Z,93.21
2022-08-22T05:33:18.983Z,93.23
2022-08-22T05:35:58.173Z,93.33
2022-08-22T05:38:32.716Z,93.20
2022-08-22T05:41:06.560Z,93.15
2022-08-22T05:43:41.188Z,93.09
2022-08-22T05:46:26.189Z,93.12
2022-08-22T05:49:00.050Z,93.06
2022-08-22T05:51:44.523Z,93.25
2022-08-22T05:54:19.981Z,93.20
2022-08-22T05:57:13.378Z,93.20
2022-08-22T05:59:47.793Z,93.10
2022-08-22T06:02:22.653Z,93.34
2022-08-22T06:04:59.182Z,93.42
2022-08-22T06:07:40.360Z,93.39
2022-08-22T06:10:22.758Z,93.50
2022-08-22T06:12:55.984Z,93.51
2022-08-22T06:15:49.296Z,93.34
2022-08-22T06:18:22.761Z,93.59
2022-08-22T06:21:39.384Z,93.63
2022-08-22T06:25:11.317Z,93.65
2022-08-22T06:36:30.519Z,93.99
2022-08-22T06:44:49.019Z,93.98
2022-08-22T07:04:26.917Z,94.21
2022-08-22T07:07:01.006Z,94.10
2022-08-22T07:10:00.333Z,94.21
2022-08-22T07:12:53.359Z,94.33
2022-08-22T07:15:43.296Z,94.29
2022-08-22T07:18:21.794Z,94.35
2022-08-22T07:21:01.165Z,94.23
2022-08-22T07:23:52.245Z,94.06
2022-08-22T07:27:40.193Z,94.46
2022-08-22T07:30:27.272Z,94.40
2022-08-22T07:33:26.173Z,94.44
2022-08-22T07:36:33.827Z,94.40
2022-08-22T07:39:30.107Z,94.51
2022-08-22T07:42:24.989Z,94.68
2022-08-22T07:45:43.455Z,94.47
2022-08-22T07:54:57.721Z,94.47
2022-08-22T07:57:36.226Z,94.60
2022-08-22T08:00:12.485Z,94.86
2022-08-22T08:03:07.023Z,94.94
2022-08-22T08:05:38.380Z,95.01
2022-08-22T08:08:20.258Z,95.02
2022-08-22T08:10:51.486Z,94.83
2022-08-22T08:13:24.816Z,94.85
2022-08-22T08:15:53.269Z,95.00
2022-08-22T08:18:26.463Z,94.89
2022-08-22T08:20:59.368Z,94.93
2022-08-22T08:23:33.045Z,94.86
2022-08-22T08:26:18.352Z,95.34
2022-08-22T08:28:57.576Z,95.32
2022-08-22T08:31:39.833Z,95.44
2022-08-22T08:34:26.831Z,95.34
2022-08-22T08:36:57.864Z,95.38
2022-08-22T08:39:37.429Z,95.16
2022-08-22T08:42:23.443Z,95.43
2022-08-22T08:45:06.851Z,95.48
2022-08-22T08:48:09.408Z,95.55
2022-08-22T08:51:18.671Z,95.46
2022-08-22T08:54:09.028Z,95.22
2022-08-22T08:57:15.678Z,95.31
2022-08-22T09:00:14.721Z,95.58
2022-08-22T09:02:42.692Z,95.48
2022-08-22T09:05:16.761Z,95.74
2022-08-22T09:08:27.623Z,95.55
2022-08-22T09:11:34.336Z,95.69
2022-08-22T09:14:48.096Z,95.73
2022-08-22T09:17:31.966Z,95.74
2022-08-22T09:20:46.391Z,95.78
2022-08-22T09:23:24.232Z,95.77
2022-08-22T09:26:37.449Z,95.98
2022-08-22T09:29:30.113Z,95.91
2022-08-22T09:32:14.188Z,95.77
2022-08-22T09:34:53.235Z,95.87
2022-08-22T09:37:28.848Z,95.89
2022-08-22T09:40:17.488Z,95.78
2022-08-22T09:43:02.910Z,95.79
2022-08-22T09:46:06.573Z,95.72
2022-08-22T09:48:42.735Z,95.68
2022-08-22T09:51:31.456Z,95.66
2022-08-22T09:54:31.158Z,95.94
2022-08-22T09:57:27.745Z,96.24
2022-08-22T10:00:22.481Z,96.46
2022-08-22T10:03:08.975Z,96.22
2022-08-22T10:06:05.541Z,96.38
2022-08-22T10:08:48.620Z,95.92
2022-08-22T10:11:34.409Z,95.82
2022-08-22T10:14:22.381Z,95.90
2022-08-22T10:17:21.880Z,96.16
2022-08-22T10:19:58.619Z,95.89
2022-08-22T10:22:49.923Z,95.93
2022-08-22T10:25:41.668Z,96.39
2022-08-22T10:28:31.369Z,96.73
2022-08-22T10:31:28.927Z,96.38
2022-08-22T10:34:10.512Z,96.34
2022-08-22T10:36:53.895Z,96.31
2022-08-22T10:39:30.720Z,96.49
2022-08-22T10:42:28.795Z,96.50
2022-08-22T10:45:36.783Z,96.62
2022-08-22T10:48:04.882Z,96.72
2022-08-22T10:51:04.362Z,96.52
2022-08-22T10:53:45.862Z,96.55
2022-08-22T10:56:28.922Z,96.45
2022-08-22T10:59:46.214Z,96.72
2022-08-22T11:02:21.223Z,96.84
2022-08-22T11:05:29.855Z,96.88
2022-08-22T11:08:20.385Z,96.56
2022-08-22T11:11:13.643Z,96.81
2022-08-22T11:14:19.344Z,96.66
2022-08-22T11:17:30.265Z,96.80
2022-08-22T11:20:19.745Z,97.39
2022-08-22T11:23:12.407Z,97.41
2022-08-22T11:25:58.235Z,97.32
2022-08-22T11:29:14.128Z,97.16
2022-08-22T11:31:51.536Z,97.10
2022-08-22T11:34:40.552Z,97.15
2022-08-22T11:37:24.091Z,97.13
2022-08-22T11:40:37.407Z,97.14
2022-08-22T11:43:39.884Z,97.26
2022-08-22T11:46:22.914Z,97.28
2022-08-22T11:49:15.824Z,96.85
2022-08-22T11:52:19.502Z,97.07
2022-08-22T11:55:05.525Z,97.15
2022-08-22T11:57:44.368Z,97.03
2022-08-22T12:00:20.770Z,97.41
2022-08-22T12:02:54.541Z,97.27
2022-08-22T12:05:29.492Z,97.65
2022-08-22T12:08:09.022Z,97.35
2022-08-22T12:11:12.631Z,97.33
2022-08-22T12:14:05.838Z,97.34
2022-08-22T12:16:45.232Z,97.40
2022-08-22T12:19:32.933Z,97.59
2022-08-22T12:22:19.323Z,97.83
2022-08-22T12:25:07.964Z,97.56
2022-08-22T12:27:48.063Z,97.74
2022-08-22T12:30:31.186Z,97.92
2022-08-22T12:33:25.822Z,97.97
2022-08-22T12:36:35.297Z,98.11
2022-08-22T12:39:15.151Z,97.87
2022-08-22T12:42:01.779Z,97.89
2022-08-22T12:44:47.086Z,97.94
2022-08-22T12:47:27.050Z,98.02
2022-08-22T12:50:12.926Z,97.86
2022-08-22T12:53:18.170Z,97.62
2022-08-22T12:56:11.989Z,97.67
2022-08-22T12:59:08.624Z,97.79
2022-08-22T13:01:43.490Z,97.83
2022-08-22T13:04:33.830Z,97.66
2022-08-22T13:07:42.242Z,97.88
2022-08-22T13:10:17.388Z,98.01
2022-08-22T13:12:52.184Z,97.82
2022-08-22T13:15:26.366Z,97.90
2022-08-22T13:18:13.205Z,97.84
2022-08-22T13:20:56.914Z,98.27
2022-08-22T13:23:42.686Z,98.01
2022-08-22T13:26:31.970Z,97.93
2022-08-22T13:29:39.687Z,98.11
2022-08-22T13:32:03.264Z,98.12
2022-08-22T13:35:03.185Z,98.08
2022-08-22T13:37:40.227Z,98.00
2022-08-22T13:40:32.263Z,98.20
2022-08-22T13:43:07.817Z,98.22
2022-08-22T13:45:46.186Z,97.98
2022-08-22T13:48:15.342Z,98.10
2022-08-22T13:51:12.378Z,98.17
2022-08-22T13:54:00.866Z,98.24
2022-08-22T13:56:50.775Z,98.23
2022-08-22T14:00:00.500Z,98.16
2022-08-22T14:02:44.442Z,98.46
2022-08-22T14:05:29.547Z,98.25
2022-08-22T14:08:13.036Z,98.24
2022-08-22T14:10:57.995Z,98.26
2022-08-22T14:13:39.957Z,98.22
2022-08-22T14:16:32.356Z,98.21
2022-08-22T14:19:11.410Z,98.32
2022-08-22T14:21:52.260Z,98.47
2022-08-22T14:24:28.300Z,98.24
2022-08-22T14:27:08.179Z,98.43
2022-08-22T14:29:42.270Z,98.21
2022-08-22T14:32:47.871Z,98.22
2022-08-22T14:35:23.569Z,98.45
2022-08-22T14:38:34.939Z,98.58
2022-08-22T14:41:09.151Z,98.21
2022-08-22T14:43:48.155Z,98.22
2022-08-22T14:46:26.599Z,98.39
2022-08-22T14:49:13.773Z,98.58
2022-08-22T14:52:10.238Z,98.53
2022-08-22T14:54:47.323Z,98.73
2022-08-22T14:57:22.198Z,98.52
2022-08-22T14:59:52.798Z,98.46
2022-08-22T15:02:30.748Z,98.52
2022-08-22T15:05:12.751Z,98.47
2022-08-22T15:07:40.756Z,98.39
2022-08-22T15:10:34.306Z,98.52
2022-08-22T15:13:07.789Z,98.76
2022-08-22T15:15:53.580Z,98.74
2022-08-22T15:18:23.739Z,98.66
2022-08-22T15:21:08.752Z,98.67
2022-08-22T15:23:45.320Z,98.79
2022-08-22T15:26:25.744Z,99.07
2022-08-22T15:29:02.615Z,98.63
2022-08-22T15:31:32.737Z,98.43
2022-08-22T15:34:13.560Z,98.51
2022-08-22T15:37:09.824Z,98.60
2022-08-22T15:40:08.388Z,98.81
2022-08-22T15:42:51.236Z,99.02
2022-08-22T15:45:33.966Z,99.17
2022-08-22T15:48:07.216Z,99.28
2022-08-22T15:50:39.787Z,98.99
2022-08-22T15:53:24.870Z,98.98
2022-08-22T15:56:32.347Z,98.77
2022-08-22T15:59:54.151Z,98.88
2022-08-22T16:02:35.263Z,98.94
2022-08-22T16:05:11.091Z,98.73
2022-08-22T16:07:43.951Z,99.06
2022-08-22T16:10:30.382Z,98.75
2022-08-22T16:13:38.138Z,99.08
2022-08-22T16:16:34.658Z,99.12
2022-08-22T16:19:02.996Z,99.19
2022-08-22T16:22:08.135Z,99.19
2022-08-22T16:25:03.021Z,99.23
2022-08-22T16:27:34.585Z,99.15
2022-08-22T16:30:09.498Z,99.02
2022-08-22T16:32:50.272Z,99.11
2022-08-22T16:36:17.043Z,99.16
2022-08-22T16:38:50.584Z,99.07
2022-08-22T16:41:41.570Z,99.27
2022-08-22T16:44:39.435Z,99.21
2022-08-22T16:47:21.609Z,99.13
2022-08-22T16:49:48.829Z,99.14
2022-08-22T16:52:28.201Z,99.09
2022-08-22T16:55:41.745Z,99.24
2022-08-22T16:58:35.706Z,99.29
2022-08-22T17:02:23.111Z,99.24
2022-08-22T17:09:05.105Z,99.58
2022-08-22T17:12:18.767Z,99.67
2022-08-22T17:15:47.868Z,99.40
2022-08-22T17:18:58.569Z,99.45
2022-08-22T17:21:57.297Z,99.66
2022-08-22T17:25:13.843Z,99.65
2022-08-22T17:28:34.185Z,99.50
2022-08-22T17:31:58.574Z,99.76
2022-08-22T17:34:56.745Z,99.76
2022-08-22T17:38:39.579Z,99.66
2022-08-22T17:41:26.788Z,99.51
2022-08-22T17:44:29.736Z,99.59
2022-08-22T17:47:06.898Z,99.56
2022-08-22T17:49:50.998Z,99.86
2022-08-22T17:52:33.265Z,99.60
2022-08-22T17:55:31.594Z,99.57
2022-08-22T17:58:37.546Z,99.45
2022-08-22T18:01:35.891Z,99.66
2022-08-22T18:04:10.698Z,99.65
2022-08-22T18:06:56.230Z,99.81
2022-08-22T18:10:07.030Z,99.56
2022-08-22T18:14:12.542Z,99.70
2022-08-22T18:18:29.542Z,99.49
2022-08-22T18:21:26.158Z,99.73
2022-08-22T18:23:54.257Z,99.72
2022-08-22T18:26:42.679Z,99.59
2022-08-22T18:29:13.064Z,99.62
2022-08-22T18:32:08.547Z,99.97
2022-08-22T18:35:09.934Z,100.00
2022-08-22T18:37:43.261Z,99.83
2022-08-22T18:40:21.483Z,99.55
2022-08-22T18:43:04.959Z,99.80
2022-08-22T18:45:57.364Z,99.95
2022-08-22T18:48:31.550Z,99.95
2022-08-22T18:51:25.365Z,99.81
2022-08-22T18:54:20.269Z,100.00
2022-08-22T18:56:54.262Z,99.98
2022-08-22T18:59:37.543Z,99.97
2022-08-22T19:02:40.746Z,99.81
2022-08-22T19:05:21.346Z,99.72
2022-08-22T19:08:18.798Z,99.88
2022-08-22T19:11:07.502Z,99.95
2022-08-22T19:13:51.497Z,99.89
2022-08-22T19:16:33.552Z,99.97
2022-08-22T19:19:09.180Z,99.97
2022-08-22T19:22:19.376Z,99.92
2022-08-22T19:25:05.930Z,99.99
2022-08-22T19:27:45.307Z,100.00
2022-08-22T19:30:44.457Z,99.97
2022-08-22T19:33:39.420Z,99.90
2022-08-22T19:36:30.611Z,100.00
2022-08-22T19:39:09.182Z,99.99
2022-08-22T19:41:56.580Z,100.00
2022-08-22T19:44:42.190Z,100.00
2022-08-22T19:47:21.345Z,100.00
2022-08-22T19:50:00.994Z,99.99
2022-08-22T19:52:28.986Z,100.00
2022-08-22T19:55:27.751Z,100.00
2022-08-22T19:58:32.812Z,99.97
2022-08-22T20:01:45.752Z,100.00
2022-08-22T20:04:35.331Z,100.00
2022-08-22T20:07:14.874Z,100.00
2022-08-22T20:09:54.364Z,100.00
2022-08-22T20:12:57.241Z,99.98
2022-08-22T20:15:27.645Z,100.00
2022-08-22T20:20:59.705Z,100.00
2022-08-22T20:23:32.591Z,100.00
2022-08-22T20:26:01.237Z,100.00
2022-08-22T20:28:48.468Z,100.00
2022-08-22T20:31:24.054Z,100.00
2022-08-22T20:33:58.328Z,100.00
2022-08-22T20:36:29.303Z,100.00
2022-08-22T20:39:09.040Z,100.00
2022-08-22T20:41:44.304Z,100.00
2022-08-22T20:44:28.352Z,100.00
2022-08-22T20:47:01.420Z,100.00
2022-08-22T20:49:56.973Z,100.00
2022-08-22T20:52:35.377Z,100.00
2022-08-22T20:55:08.606Z,100.00
2022-08-22T20:57:49.252Z,100.00
2022-08-22T21:00:28.305Z,100.00
2022-08-22T21:03:09.499Z,100.00
2022-08-22T21:05:41.709Z,100.00
2022-08-22T21:08:27.150Z,100.00
2022-08-22T21:11:22.939Z,100.00
2022-08-22T21:13:51.939Z,100.00
2022-08-22T21:16:33.161Z,100.00
2022-08-22T21:19:03.542Z,100.00
2022-08-22T21:21:39.192Z,100.00
2022-08-22T21:24:10.932Z,100.00
2022-08-22T21:27:02.425Z,100.00
2022-08-22T21:29:46.470Z,100.00
2022-08-22T21:32:51.161Z,100.00
2022-08-22T21:35:31.814Z,100.00
2022-08-22T21:38:04.359Z,100.00
2022-08-22T21:40:37.646Z,100.00
2022-08-22T21:43:11.649Z,100.00
2022-08-22T21:45:39.475Z,100.00
2022-08-22T21:48:35.036Z,100.00
2022-08-22T21:51:22.483Z,100.00
2022-08-22T21:54:16.113Z,100.00
2022-08-22T21:56:41.820Z,100.00
2022-08-22T21:59:52.198Z,100.00
2022-08-22T22:02:41.773Z,100.00
2022-08-22T22:05:15.521Z,100.00
2022-08-22T22:07:46.582Z,100.00
2022-08-22T22:10:18.400Z,100.00
2022-08-22T22:12:48.695Z,100.00
2022-08-22T22:15:21.661Z,100.00
2022-08-22T22:17:49.249Z,100.00
2022-08-22T22:20:18.539Z,100.00
2022-08-22T22:22:49.689Z,100.00
2022-08-22T22:25:40.346Z,100.00
2022-08-22T22:28:42.217Z,100.00
2022-08-22T22:31:13.739Z,100.00
2022-08-22T22:33:47.263Z,100.00
2022-08-22T22:36:33.399Z,100.00
2022-08-22T22:39:11.522Z,100.00
2022-08-22T22:41:43.179Z,100.00
2022-08-22T22:44:11.736Z,100.00
2022-08-22T22:46:42.920Z,100.00
2022-08-22T22:49:11.138Z,100.00
2022-08-22T22:51:40.552Z,100.00
2022-08-22T22:54:07.766Z,100.00
2022-08-22T22:56:39.380Z,100.00
2022-08-22T22:59:12.687Z,100.00
2022-08-22T23:02:08.887Z,100.00
2022-08-22T23:04:42.986Z,100.00
2022-08-22T23:07:16.492Z,100.00
2022-08-22T23:10:06.773Z,100.00
2022-08-22T23:12:39.065Z,100.00
2022-08-22T23:15:07.376Z,100.00
2022-08-22T23:17:40.817Z,100.00
2022-08-22T23:20:08.720Z,100.00
2022-08-22T23:22:36.066Z,100.00
2022-08-22T23:25:04.850Z,100.00
2022-08-22T23:27:33.563Z,100.00
2022-08-22T23:30:03.083Z,100.00
2022-08-22T23:32:31.334Z,100.00
2022-08-22T23:34:58.765Z,100.00
2022-08-22T23:37:26.029Z,100.00
2022-08-22T23:39:54.592Z,100.00
2022-08-22T23:42:21.962Z,100.00
2022-08-22T23:44:49.563Z,100.00
2022-08-22T23:47:20.238Z,100.00
2022-08-22T23:49:49.260Z,100.00
2022-08-22T23:52:16.691Z,100.00
2022-08-22T23:54:46.149Z,100.00
2022-08-22T23:57:15.971Z,100.00
2022-08-22T23:59:48.007Z,100.00
